Time;durP1;ratioP1;P1;durP2;ratioP2;P2;SDS_P1;SDS_P2;PMS_P1;PMS_P2;Temp;Humidity;BMP_temperature;BMP_pressure;BME280_temperature;BME280_humidity;BME280_pressure;Samples;Min_cycle;Max_cycle;Signal;HPM_P1;HPM_P2
2021/10/14 00:00:01;;;;;;;;;;;9.50;93.40;9.90;100445.00;;;;427373;22;82428;-91
2021/10/14 00:00:13;;;;;;;;;;;9.50;93.40;10.00;100445.00;;;;428584;22;91191;-91
2021/10/14 00:00:25;;;;;;;;;;;9.50;93.40;10.00;100436.00;;;;424585;22;83429;-91
2021/10/14 00:00:37;;;;;;;;;;;9.50;93.50;10.00;100445.00;;;;418329;23;87780;-91
2021/10/14 00:00:49;;;;;;;;;;;9.50;93.50;10.00;100445.00;;;;424895;22;83273;-91
2021/10/14 00:01:01;;;;;;;;;;;9.50;93.40;9.90;100445.00;;;;424452;22;88176;-91
2021/10/14 00:01:13;;;;;;;;;;;9.50;93.40;9.90;100441.00;;;;427063;22;83277;-90
2021/10/14 00:01:25;;;;;;;;;;;9.50;93.40;10.00;100443.00;;;;428144;22;91430;-92
2021/10/14 00:01:38;;;;;;;;;;;9.50;93.40;10.00;100446.00;;;;420790;23;83295;-91
2021/10/14 00:01:49;;;;;;;;;;;9.60;93.50;10.00;100441.00;;;;428208;22;90086;-90
2021/10/14 00:02:01;;;;;;;;;;;9.50;93.50;9.90;100441.00;;;;429163;22;83108;-90
2021/10/14 00:02:13;;;;;;;;;;;9.60;93.50;9.80;100443.00;;;;420246;23;90685;-90
2021/10/14 00:02:25;;;;;;;;;;;9.60;93.40;9.90;100437.00;;;;425072;22;83383;-90
2021/10/14 00:02:37;;;;;;;;;;;9.60;93.40;9.80;100447.00;;;;428436;22;90309;-90
2021/10/14 00:02:53;;;;;;;;;;;9.50;93.40;9.80;100443.00;;;;422862;23;83293;-91
2021/10/14 00:03:05;;;;;;;;;;;9.50;93.40;9.90;100438.00;;;;424373;22;91333;-92
2021/10/14 00:03:17;;;;;;;;;;;9.50;93.40;9.90;100438.00;;;;424901;22;83327;-90
2021/10/14 00:03:30;;;;;;;;;;;9.50;93.40;10.00;100441.00;;;;422276;23;92291;-91
2021/10/14 00:03:42;;;;;;;;;;;9.50;93.40;10.00;100438.00;;;;423019;23;82491;-91
2021/10/14 00:03:53;;;;;;;;;;;9.60;93.40;10.00;100442.00;;;;422584;23;90196;-91
2021/10/14 00:04:05;;;;;;;;;;;9.50;93.40;9.90;100434.00;;;;425330;22;83286;-90
2021/10/14 00:04:17;;;;;;;;;;;9.50;93.40;9.90;100442.00;;;;424725;22;90826;-90
2021/10/14 00:04:29;;;;;;;;;;;9.50;93.50;9.90;100446.00;;;;425125;22;83266;-91
2021/10/14 00:04:41;;;;;;;;;;;9.50;93.50;9.90;100441.00;;;;424710;22;91053;-90
2021/10/14 00:04:53;;;;;;;;;;;9.50;93.50;9.90;100443.00;;;;426929;22;83274;-91
2021/10/14 00:05:05;;;;;;;;;;;9.50;93.40;10.00;100437.00;;;;420359;23;89059;-90
2021/10/14 00:05:17;;;;;;;;;;;9.50;93.50;10.00;100439.00;;;;425277;22;83363;-90
2021/10/14 00:05:29;;;;;;;;;;;9.50;93.50;9.90;100438.00;;;;426752;22;91466;-91
2021/10/14 00:05:40;;;;;;;;;;;9.50;93.50;9.90;100443.00;;;;422517;23;82595;-91
2021/10/14 00:05:52;;;;;;;;;;;9.50;93.50;9.80;100446.00;;;;422673;23;91482;-91
2021/10/14 00:06:04;;;;;;;;;;;9.50;93.60;9.80;100443.00;;;;427464;22;82415;-91
2021/10/14 00:06:16;;;;;;;;;;;9.50;93.60;9.90;100438.00;;;;420283;23;91707;-91
2021/10/14 00:06:28;;;;;;;;;;;9.50;93.60;9.80;100449.00;;;;419081;23;82508;-90
2021/10/14 00:06:40;;;;;;;;;;;9.50;93.60;9.80;100438.00;;;;424109;22;90745;-90
2021/10/14 00:06:51;;;;;;;;;;;9.50;93.60;9.90;100452.00;;;;423266;23;82420;-91
2021/10/14 00:07:03;;;;;;;;;;;9.50;93.60;9.90;100443.00;;;;426527;22;90947;-91
2021/10/14 00:07:15;;;;;;;;;;;9.50;93.60;9.90;100438.00;;;;425213;22;83333;-91
2021/10/14 00:07:27;;;;;;;;;;;9.50;93.60;9.90;100440.00;;;;420557;23;91246;-91
2021/10/14 00:07:39;;;;;;;;;;;9.50;93.50;9.90;100436.00;;;;425257;22;83291;-91
2021/10/14 00:07:50;;;;;;;;;;;9.50;93.50;9.90;100441.00;;;;428905;22;90286;-91
2021/10/14 00:08:02;;;;;;;;;;;9.50;93.60;9.80;100442.00;;;;425078;22;83503;-90
2021/10/14 00:08:14;;;;;;;;;;;9.50;93.60;9.90;100449.00;;;;420302;23;91584;-91
2021/10/14 00:08:26;;;;;;;;;;;9.50;93.60;9.90;100440.00;;;;427241;22;82426;-91
2021/10/14 00:08:38;;;;;;;;;;;9.50;93.60;9.90;100446.00;;;;424272;22;91906;-91
2021/10/14 00:08:50;;;;;;;;;;;9.50;93.60;9.80;100444.00;;;;420775;23;83382;-90
2021/10/14 00:09:02;;;;;;;;;;;9.50;93.60;9.80;100452.00;;;;424239;22;91347;-91
2021/10/14 00:09:14;;;;;;;;;;;9.50;93.60;9.80;100452.00;;;;429064;22;82423;-91
2021/10/14 00:09:26;;;;;;;;;;;9.50;93.60;9.90;100447.00;;;;424307;22;92861;-91
2021/10/14 00:09:37;;;;;;;;;;;9.50;93.60;9.90;100443.00;;;;425257;22;83388;-91
2021/10/14 00:09:49;;;;;;;;;;;9.50;93.60;9.90;100445.00;;;;428221;22;90664;-90
2021/10/14 00:10:01;;;;;;;;;;;9.50;93.60;9.90;100441.00;;;;425155;22;83379;-91
2021/10/14 00:10:13;;;;;;;;;;;9.50;93.60;9.90;100444.00;;;;424736;22;90245;-91
2021/10/14 00:10:25;;;;;;;;;;;9.50;93.60;9.80;100453.00;;;;429125;22;83314;-90
2021/10/14 00:10:37;;;;;;;;;;;9.50;93.70;9.90;100452.00;;;;424219;22;91680;-90
2021/10/14 00:10:49;;;;;;;;;;;9.50;93.70;9.90;100449.00;;;;423225;23;83406;-90
2021/10/14 00:11:00;;;;;;;;;;;9.50;93.60;9.90;100441.00;;;;424707;22;91512;-91
2021/10/14 00:11:12;;;;;;;;;;;9.50;93.60;9.80;100442.00;;;;427034;22;82318;-90
2021/10/14 00:11:24;;;;;;;;;;;9.50;93.60;9.90;100451.00;;;;428675;22;92962;-91
2021/10/14 00:11:36;;;;;;;;;;;9.50;93.60;9.80;100447.00;;;;429480;22;82521;-90
2021/10/14 00:11:48;;;;;;;;;;;9.50;93.60;9.90;100445.00;;;;426420;22;91720;-91
2021/10/14 00:12:00;;;;;;;;;;;9.50;93.60;9.90;100443.00;;;;424907;22;83306;-91
2021/10/14 00:12:11;;;;;;;;;;;9.50;93.60;9.90;100447.00;;;;424790;22;90604;-91
2021/10/14 00:12:23;;;;;;;;;;;9.50;93.60;10.00;100442.00;;;;422783;23;83296;-90
2021/10/14 00:12:35;;;;;;;;;;;9.50;93.60;9.90;100455.00;;;;426776;22;90282;-91
2021/10/14 00:12:47;;;;;;;;;;;9.50;93.60;9.80;100452.00;;;;427425;22;83309;-90
2021/10/14 00:12:59;;;;;;;;;;;9.50;93.60;9.80;100446.00;;;;422372;23;89078;-90
2021/10/14 00:13:10;;;;;;;;;;;9.50;93.60;9.80;100445.00;;;;423216;23;82451;-90
2021/10/14 00:13:23;;;;;;;;;;;9.50;93.60;9.80;100448.00;;;;424363;22;91261;-90
2021/10/14 00:13:34;;;;;;;;;;;9.50;93.60;9.80;100439.00;;;;426970;22;83372;-91
2021/10/14 00:13:46;;;;;;;;;;;9.50;93.60;9.90;100447.00;;;;424776;22;91279;-91
2021/10/14 00:13:58;;;;;;;;;;;9.50;93.60;9.90;100443.00;;;;421051;23;83325;-91
2021/10/14 00:14:10;;;;;;;;;;;9.50;93.60;9.80;100446.00;;;;426787;22;91078;-91
2021/10/14 00:14:22;;;;;;;;;;;9.50;93.60;9.80;100449.00;;;;424901;22;83363;-90
2021/10/14 00:14:33;;;;;;;;;;;9.50;93.60;9.70;100441.00;;;;422219;23;90495;-91
2021/10/14 00:14:45;;;;;;;;;;;9.50;93.60;9.80;100441.00;;;;425167;22;82481;-90
2021/10/14 00:14:57;;;;;;;;;;;9.50;93.70;9.80;100452.00;;;;420606;23;90937;-91
2021/10/14 00:15:09;;;;;;;;;;;9.40;93.70;9.80;100448.00;;;;425185;22;82479;-91
2021/10/14 00:15:21;;;;;;;;;;;9.50;93.70;9.80;100443.00;;;;424284;22;92152;-90
2021/10/14 00:15:33;;;;;;;;;;;9.40;93.80;9.80;100447.00;;;;423316;23;82480;-91
2021/10/14 00:15:45;;;;;;;;;;;9.40;93.70;9.90;100450.00;;;;426502;22;91445;-91
2021/10/14 00:15:57;;;;;;;;;;;9.50;93.70;9.80;100448.00;;;;425265;22;83256;-90
2021/10/14 00:16:09;;;;;;;;;;;9.40;93.70;9.90;100439.00;;;;424427;22;88092;-90
2021/10/14 00:16:21;;;;;;;;;;;9.40;93.70;9.90;100439.00;;;;427431;22;82468;-90
2021/10/14 00:16:33;;;;;;;;;;;9.50;93.70;9.80;100437.00;;;;426496;22;91363;-90
2021/10/14 00:16:44;;;;;;;;;;;9.50;93.70;9.80;100444.00;;;;423142;23;83375;-90
2021/10/14 00:16:57;;;;;;;;;;;9.50;93.70;9.80;100439.00;;;;424715;22;91413;-91
2021/10/14 00:17:08;;;;;;;;;;;9.40;93.70;9.90;100440.00;;;;425320;22;82448;-91
2021/10/14 00:17:20;;;;;;;;;;;9.40;93.70;9.90;100443.00;;;;420470;23;92034;-90
2021/10/14 00:17:32;;;;;;;;;;;9.40;93.70;9.90;100438.00;;;;429691;22;82270;-90
2021/10/14 00:17:44;;;;;;;;;;;9.50;93.70;9.90;100444.00;;;;424726;22;91541;-91
2021/10/14 00:17:57;;;;;;;;;;;9.50;93.70;9.90;100444.00;;;;424880;22;82508;-90
2021/10/14 00:18:09;;;;;;;;;;;9.50;93.80;9.80;100443.00;;;;432568;22;91237;-91
2021/10/14 00:18:21;;;;;;;;;;;9.50;93.80;9.80;100444.00;;;;427018;22;83377;-90
2021/10/14 00:18:32;;;;;;;;;;;9.50;93.80;9.70;100441.00;;;;422006;23;90846;-90
2021/10/14 00:18:44;;;;;;;;;;;9.40;93.70;9.80;100439.00;;;;424924;22;82594;-90
2021/10/14 00:18:56;;;;;;;;;;;9.40;93.70;9.80;100425.00;;;;422161;23;90285;-90
2021/10/14 00:19:08;;;;;;;;;;;9.40;93.70;9.90;100440.00;;;;423247;23;82407;-90
2021/10/14 00:19:20;;;;;;;;;;;9.40;93.80;9.90;100442.00;;;;424193;22;92206;-91
2021/10/14 00:19:32;;;;;;;;;;;9.40;93.80;9.80;100440.00;;;;422950;23;83333;-90
2021/10/14 00:19:45;;;;;;;;;;;9.40;93.80;9.90;100439.00;;;;422696;23;91357;-90
2021/10/14 00:19:57;;;;;;;;;;;9.50;93.80;9.80;100439.00;;;;421152;23;82493;-90
2021/10/14 00:20:09;;;;;;;;;;;9.50;93.80;9.80;100440.00;;;;424444;22;91669;-90
2021/10/14 00:20:21;;;;;;;;;;;9.40;93.70;9.70;100433.00;;;;422867;23;83340;-91
2021/10/14 00:20:33;;;;;;;;;;;9.40;93.70;9.80;100437.00;;;;422250;23;91289;-91
2021/10/14 00:20:44;;;;;;;;;;;9.40;93.70;9.80;100435.00;;;;424642;22;83478;-89
2021/10/14 00:20:56;;;;;;;;;;;9.40;93.70;9.80;100435.00;;;;420049;23;89191;-90
2021/10/14 00:21:08;;;;;;;;;;;9.40;93.80;9.70;100431.00;;;;425249;22;82440;-90
2021/10/14 00:21:20;;;;;;;;;;;9.40;93.80;9.70;100428.00;;;;424660;22;91192;-90
2021/10/14 00:21:32;;;;;;;;;;;9.40;93.80;9.70;100434.00;;;;421243;23;82430;-91
2021/10/14 00:21:43;;;;;;;;;;;9.40;93.80;9.80;100438.00;;;;418287;23;91639;-91
2021/10/14 00:21:55;;;;;;;;;;;9.40;93.80;9.80;100434.00;;;;427347;22;82442;-90
2021/10/14 00:22:07;;;;;;;;;;;9.40;93.80;9.80;100434.00;;;;424342;22;91453;-91
2021/10/14 00:22:19;;;;;;;;;;;9.40;94.10;9.80;100437.00;;;;418929;23;82432;-90
2021/10/14 00:22:30;;;;;;;;;;;9.40;93.90;9.70;100430.00;;;;424344;22;91308;-91
2021/10/14 00:22:42;;;;;;;;;;;9.40;94.00;9.60;100426.00;;;;427212;22;84008;-90
2021/10/14 00:22:54;;;;;;;;;;;9.40;94.00;9.70;100427.00;;;;422695;23;91836;-91
2021/10/14 00:23:06;;;;;;;;;;;9.40;93.90;9.70;100431.00;;;;422841;23;83376;-90
2021/10/14 00:23:18;;;;;;;;;;;9.40;93.90;9.80;100434.00;;;;424177;22;92630;-90
2021/10/14 00:23:30;;;;;;;;;;;9.40;93.90;9.80;100436.00;;;;422778;23;83455;-90
2021/10/14 00:23:42;;;;;;;;;;;9.40;93.90;9.80;100436.00;;;;426430;22;91455;-90
2021/10/14 00:23:54;;;;;;;;;;;9.40;93.90;9.80;100432.00;;;;424794;22;83365;-91
2021/10/14 00:24:05;;;;;;;;;;;9.40;93.90;9.70;100438.00;;;;420556;23;90317;-91
2021/10/14 00:24:17;;;;;;;;;;;9.40;93.90;9.80;100433.00;;;;429551;22;82666;-91
2021/10/14 00:24:29;;;;;;;;;;;9.40;93.90;9.70;100435.00;;;;422660;23;91167;-90
2021/10/14 00:24:41;;;;;;;;;;;9.40;94.00;9.80;100436.00;;;;418661;23;83306;-90
2021/10/14 00:24:52;;;;;;;;;;;9.40;94.00;9.80;100435.00;;;;424335;22;91906;-90
2021/10/14 00:25:04;;;;;;;;;;;9.40;94.00;9.80;100428.00;;;;424911;22;83126;-92
2021/10/14 00:25:19;;;;;;;;;;;9.40;94.00;9.80;100436.00;;;;418407;23;92121;-91
2021/10/14 00:25:31;;;;;;;;;;;9.40;93.90;9.80;100433.00;;;;427386;22;83306;-91
2021/10/14 00:25:43;;;;;;;;;;;9.40;94.00;9.70;100426.00;;;;422688;23;90229;-90
2021/10/14 00:25:55;;;;;;;;;;;9.40;94.00;9.70;100426.00;;;;421144;23;82540;-90
2021/10/14 00:26:06;;;;;;;;;;;9.30;93.90;9.70;100426.00;;;;422433;23;91283;-90
2021/10/14 00:26:18;;;;;;;;;;;9.40;93.90;9.70;100434.00;;;;420726;23;83419;-90
2021/10/14 00:26:31;;;;;;;;;;;9.40;93.90;9.80;100434.00;;;;424497;22;90254;-90
2021/10/14 00:26:42;;;;;;;;;;;9.30;93.90;9.70;100434.00;;;;425347;22;83288;-90
2021/10/14 00:26:54;;;;;;;;;;;9.30;93.90;9.80;100433.00;;;;420641;23;90128;-90
2021/10/14 00:27:06;;;;;;;;;;;9.30;93.90;9.80;100438.00;;;;424973;22;83378;-90
2021/10/14 00:27:18;;;;;;;;;;;9.30;94.00;9.80;100430.00;;;;424219;22;91159;-90
2021/10/14 00:27:30;;;;;;;;;;;9.30;93.90;9.80;100433.00;;;;421319;23;82403;-91
2021/10/14 00:27:42;;;;;;;;;;;9.30;93.90;9.70;100437.00;;;;424725;22;91368;-90
2021/10/14 00:27:54;;;;;;;;;;;9.30;93.90;9.70;100427.00;;;;422512;23;83410;-90
2021/10/14 00:28:06;;;;;;;;;;;9.40;94.00;9.70;100428.00;;;;420613;23;91377;-90
2021/10/14 00:28:17;;;;;;;;;;;9.30;94.00;9.70;100434.00;;;;422656;23;83544;-90
2021/10/14 00:28:29;;;;;;;;;;;9.30;94.00;9.80;100440.00;;;;424015;22;90951;-90
2021/10/14 00:28:41;;;;;;;;;;;9.30;93.90;9.70;100433.00;;;;424811;22;82557;-90
2021/10/14 00:28:53;;;;;;;;;;;9.30;94.00;9.80;100433.00;;;;426809;22;89495;-91
2021/10/14 00:29:04;;;;;;;;;;;9.30;94.00;9.70;100438.00;;;;422890;23;82494;-90
2021/10/14 00:29:16;;;;;;;;;;;9.30;94.00;9.70;100433.00;;;;424280;22;92576;-90
2021/10/14 00:29:28;;;;;;;;;;;9.30;94.00;9.70;100436.00;;;;424593;22;83915;-91
2021/10/14 00:29:40;;;;;;;;;;;9.30;94.00;9.70;100435.00;;;;420292;23;91464;-91
2021/10/14 00:29:52;;;;;;;;;;;9.30;94.00;9.70;100430.00;;;;425214;22;82441;-89
2021/10/14 00:30:04;;;;;;;;;;;9.30;94.00;9.70;100439.00;;;;424716;22;90394;-90
2021/10/14 00:30:15;;;;;;;;;;;9.30;94.00;9.60;100441.00;;;;420954;23;82565;-89
2021/10/14 00:30:28;;;;;;;;;;;9.30;94.00;9.70;100435.00;;;;422736;23;90477;-90
2021/10/14 00:30:40;;;;;;;;;;;9.30;94.10;9.80;100440.00;;;;424918;22;83306;-90
2021/10/14 00:30:52;;;;;;;;;;;9.30;94.00;9.70;100435.00;;;;422281;23;91471;-91
2021/10/14 00:31:04;;;;;;;;;;;9.30;94.00;9.70;100429.00;;;;424939;22;83366;-90
2021/10/14 00:31:16;;;;;;;;;;;9.30;94.00;9.60;100442.00;;;;424607;22;91555;-90
2021/10/14 00:31:28;;;;;;;;;;;9.30;94.00;9.50;100437.00;;;;420688;23;83312;-90
2021/10/14 00:31:40;;;;;;;;;;;9.30;94.00;9.60;100440.00;;;;422436;23;92082;-90
2021/10/14 00:31:51;;;;;;;;;;;9.30;94.00;9.70;100435.00;;;;425224;22;82506;-91
2021/10/14 00:32:03;;;;;;;;;;;9.30;94.10;9.70;100441.00;;;;422379;23;91663;-91
2021/10/14 00:32:15;;;;;;;;;;;9.30;94.10;9.70;100442.00;;;;429097;22;82406;-90
2021/10/14 00:32:27;;;;;;;;;;;9.30;94.10;9.70;100434.00;;;;424495;22;91719;-90
2021/10/14 00:32:39;;;;;;;;;;;9.30;94.10;9.60;100444.00;;;;420961;23;83420;-91
2021/10/14 00:32:51;;;;;;;;;;;9.30;94.10;9.70;100443.00;;;;422677;23;90355;-90
2021/10/14 00:33:03;;;;;;;;;;;9.30;94.10;9.70;100442.00;;;;420827;23;82479;-91
2021/10/14 00:33:14;;;;;;;;;;;9.30;94.10;9.60;100439.00;;;;426390;22;92164;-91
2021/10/14 00:33:27;;;;;;;;;;;9.30;94.10;9.60;100440.00;;;;424734;22;83445;-90
2021/10/14 00:33:38;;;;;;;;;;;9.30;94.10;9.70;100442.00;;;;422492;23;89116;-91
2021/10/14 00:33:50;;;;;;;;;;;9.30;94.20;9.70;100435.00;;;;422757;23;83336;-90
2021/10/14 00:34:02;;;;;;;;;;;9.30;94.20;9.60;100442.00;;;;428922;22;89669;-91
2021/10/14 00:34:14;;;;;;;;;;;9.30;94.20;9.70;100441.00;;;;424864;22;83703;-91
2021/10/14 00:34:25;;;;;;;;;;;9.30;94.20;9.70;100439.00;;;;420176;23;91515;-90
2021/10/14 00:34:37;;;;;;;;;;;9.30;94.20;9.60;100437.00;;;;424763;22;83201;-91
2021/10/14 00:34:49;;;;;;;;;;;9.30;94.20;9.70;100440.00;;;;426443;22;91167;-91
2021/10/14 00:35:01;;;;;;;;;;;9.20;94.10;9.70;100449.00;;;;422871;23;83317;-91
2021/10/14 00:35:12;;;;;;;;;;;9.20;94.20;9.70;100437.00;;;;426668;22;92430;-91
2021/10/14 00:35:24;;;;;;;;;;;9.30;94.20;9.70;100440.00;;;;425253;22;83338;-91
2021/10/14 00:35:37;;;;;;;;;;;9.30;94.20;9.70;100435.00;;;;424504;22;90332;-91
2021/10/14 00:35:49;;;;;;;;;;;9.30;94.20;9.70;100437.00;;;;427339;22;83323;-91
2021/10/14 00:36:01;;;;;;;;;;;9.20;94.20;9.60;100435.00;;;;422232;23;90472;-90
2021/10/14 00:36:12;;;;;;;;;;;9.30;94.30;9.70;100441.00;;;;425383;22;82420;-91
2021/10/14 00:36:24;;;;;;;;;;;9.30;94.20;9.70;100432.00;;;;424402;22;90489;-90
2021/10/14 00:36:36;;;;;;;;;;;9.30;94.20;9.70;100435.00;;;;421062;23;83357;-91
2021/10/14 00:36:48;;;;;;;;;;;9.30;94.20;9.70;100442.00;;;;424617;22;90235;-90
2021/10/14 00:37:00;;;;;;;;;;;9.20;94.20;9.70;100432.00;;;;423328;23;83378;-90
2021/10/14 00:37:12;;;;;;;;;;;9.20;94.10;9.70;100436.00;;;;422123;23;92804;-91
2021/10/14 00:37:23;;;;;;;;;;;9.30;94.20;9.60;100441.00;;;;425179;22;82382;-90
2021/10/14 00:37:35;;;;;;;;;;;9.20;94.10;9.70;100440.00;;;;424440;22;91346;-90
2021/10/14 00:37:47;;;;;;;;;;;9.30;94.10;9.70;100440.00;;;;420754;23;82442;-90
2021/10/14 00:37:59;;;;;;;;;;;9.30;94.20;9.70;100436.00;;;;424590;22;90891;-90
2021/10/14 00:38:11;;;;;;;;;;;9.30;94.20;9.70;100440.00;;;;425404;22;82373;-90
2021/10/14 00:38:23;;;;;;;;;;;9.30;94.20;9.70;100435.00;;;;424348;22;91149;-91
2021/10/14 00:38:35;;;;;;;;;;;9.30;94.10;9.70;100439.00;;;;427353;22;83347;-91
2021/10/14 00:38:47;;;;;;;;;;;9.30;94.10;9.70;100441.00;;;;424203;22;89436;-90
2021/10/14 00:38:59;;;;;;;;;;;9.30;94.10;9.70;100442.00;;;;425364;22;82371;-90
2021/10/14 00:39:10;;;;;;;;;;;9.30;94.10;9.70;100437.00;;;;422093;23;90520;-91
2021/10/14 00:39:22;;;;;;;;;;;9.30;94.10;9.70;100438.00;;;;422953;23;83308;-91
2021/10/14 00:39:34;;;;;;;;;;;9.30;94.20;9.70;100435.00;;;;420242;23;91856;-91
2021/10/14 00:39:46;;;;;;;;;;;9.30;94.10;9.60;100433.00;;;;425318;22;83239;-91
2021/10/14 00:39:57;;;;;;;;;;;9.30;94.10;9.60;100441.00;;;;424645;22;90101;-91
2021/10/14 00:40:10;;;;;;;;;;;9.30;94.10;9.60;100437.00;;;;421111;23;83281;-91
2021/10/14 00:40:22;;;;;;;;;;;9.20;94.10;9.60;100434.00;;;;422589;23;91984;-91
2021/10/14 00:40:34;;;;;;;;;;;9.20;94.10;9.60;100433.00;;;;421142;23;83320;-91
2021/10/14 00:40:46;;;;;;;;;;;9.20;94.20;9.60;100440.00;;;;422635;23;91302;-90
2021/10/14 00:40:57;;;;;;;;;;;9.20;94.20;9.60;100430.00;;;;421135;23;82456;-91
2021/10/14 00:41:09;;;;;;;;;;;9.20;94.20;9.60;100438.00;;;;422220;23;92388;-91
2021/10/14 00:41:21;;;;;;;;;;;9.20;94.20;9.60;100437.00;;;;425313;22;82413;-91
2021/10/14 00:41:33;;;;;;;;;;;9.20;94.20;9.60;100445.00;;;;424765;22;90264;-91
2021/10/14 00:41:45;;;;;;;;;;;9.30;94.20;9.70;100446.00;;;;422510;23;82555;-91
2021/10/14 00:41:56;;;;;;;;;;;9.20;94.20;9.60;100440.00;;;;424675;22;91550;-91
2021/10/14 00:42:10;;;;;;;;;;;9.20;94.10;9.60;100437.00;;;;424637;22;83427;-90
2021/10/14 00:42:22;;;;;;;;;;;9.20;94.40;9.60;100444.00;;;;422673;23;91086;-91
2021/10/14 00:42:34;;;;;;;;;;;9.20;94.20;9.60;100441.00;;;;422642;23;83972;-90
2021/10/14 00:42:46;;;;;;;;;;;9.20;94.20;9.60;100444.00;;;;422293;23;91615;-91
2021/10/14 00:42:58;;;;;;;;;;;9.20;94.20;9.70;100431.00;;;;427461;22;82343;-91
2021/10/14 00:43:09;;;;;;;;;;;9.20;94.20;9.60;100439.00;;;;422550;23;92122;-90
2021/10/14 00:43:22;;;;;;;;;;;9.20;94.20;9.60;100444.00;;;;427021;22;83337;-91
2021/10/14 00:43:34;;;;;;;;;;;9.20;94.10;9.60;100439.00;;;;424225;22;91418;-91
2021/10/14 00:43:45;;;;;;;;;;;9.20;94.10;9.60;100443.00;;;;421225;23;82474;-90
2021/10/14 00:43:58;;;;;;;;;;;9.20;94.10;9.60;100439.00;;;;426804;22;91897;-90
2021/10/14 00:44:09;;;;;;;;;;;9.20;94.20;9.60;100445.00;;;;425299;22;83253;-90
2021/10/14 00:44:21;;;;;;;;;;;9.20;94.20;9.60;100451.00;;;;422717;23;91292;-91
2021/10/14 00:44:46;;;;;;;;;;;9.20;94.20;9.60;100451.00;;;;425115;22;83392;-91
2021/10/14 00:44:59;;;;;;;;;;;9.20;94.20;9.70;100449.00;;;;424701;22;90187;-91
2021/10/14 00:45:12;;;;;;;;;;;9.20;94.20;9.60;100443.00;;;;422740;23;83385;-91
2021/10/14 00:45:23;;;;;;;;;;;9.20;94.20;9.70;100446.00;;;;422573;23;91609;-91
2021/10/14 00:45:35;;;;;;;;;;;9.20;94.20;9.70;100450.00;;;;427219;22;83382;-90
2021/10/14 00:45:47;;;;;;;;;;;9.20;94.20;9.70;100446.00;;;;426429;22;91212;-90
2021/10/14 00:45:59;;;;;;;;;;;9.20;94.20;9.70;100449.00;;;;423196;23;82571;-90
2021/10/14 00:46:17;;;;;;;;;;;9.20;94.20;9.60;100454.00;;;;424352;22;90415;-90
2021/10/14 00:46:34;;;;;;;;;;;9.20;94.20;9.50;100453.00;;;;426938;22;83467;-90
2021/10/14 00:46:53;;;;;;;;;;;9.20;94.20;9.70;100448.00;;;;424288;22;90402;-91
2021/10/14 00:47:05;;;;;;;;;;;9.20;94.30;9.70;100443.00;;;;423103;23;82371;-90
2021/10/14 00:47:18;;;;;;;;;;;9.20;94.30;9.50;100452.00;;;;424463;22;89051;-91
2021/10/14 00:47:30;;;;;;;;;;;9.20;94.30;9.60;100440.00;;;;425259;22;83164;-91
2021/10/14 00:47:42;;;;;;;;;;;9.20;94.30;9.50;100444.00;;;;424335;22;91795;-91
2021/10/14 00:47:54;;;;;;;;;;;9.20;94.30;9.60;100451.00;;;;421030;23;83429;-91
2021/10/14 00:48:06;;;;;;;;;;;9.20;94.30;9.60;100434.00;;;;422287;23;91932;-90
2021/10/14 00:48:19;;;;;;;;;;;9.20;94.30;9.60;100442.00;;;;425395;22;83279;-91
2021/10/14 00:48:31;;;;;;;;;;;9.20;94.30;9.70;100443.00;;;;422626;23;90103;-91
2021/10/14 00:48:42;;;;;;;;;;;9.20;94.30;9.60;100443.00;;;;425196;22;82420;-90
2021/10/14 00:48:54;;;;;;;;;;;9.20;94.30;9.60;100435.00;;;;426863;22;90316;-91
2021/10/14 00:49:06;;;;;;;;;;;9.20;94.30;9.70;100439.00;;;;424878;22;83208;-90
2021/10/14 00:49:18;;;;;;;;;;;9.20;94.40;9.50;100450.00;;;;426320;22;91299;-90
2021/10/14 00:49:30;;;;;;;;;;;9.20;94.30;9.50;100452.00;;;;425025;22;83409;-91
2021/10/14 00:49:41;;;;;;;;;;;9.20;94.20;9.50;100438.00;;;;426749;22;92438;-89
2021/10/14 00:49:54;;;;;;;;;;;9.20;94.20;9.50;100451.00;;;;422827;23;82449;-91
2021/10/14 00:50:07;;;;;;;;;;;9.20;94.30;9.50;100450.00;;;;424364;22;91012;-91
2021/10/14 00:50:18;;;;;;;;;;;9.20;94.30;9.50;100437.00;;;;422850;23;83286;-91
2021/10/14 00:50:30;;;;;;;;;;;9.20;94.30;9.50;100449.00;;;;422674;23;91205;-90
2021/10/14 00:50:42;;;;;;;;;;;9.20;94.30;9.50;100441.00;;;;422860;23;82423;-91
2021/10/14 00:50:54;;;;;;;;;;;9.10;94.30;9.50;100452.00;;;;426485;22;91617;-90
2021/10/14 00:51:06;;;;;;;;;;;9.10;94.30;9.50;100441.00;;;;423226;23;82306;-90
2021/10/14 00:51:17;;;;;;;;;;;9.10;94.40;9.50;100443.00;;;;424227;22;90356;-91
2021/10/14 00:51:29;;;;;;;;;;;9.10;94.30;9.60;100442.00;;;;427388;22;83304;-91
2021/10/14 00:51:41;;;;;;;;;;;9.10;94.40;9.60;100444.00;;;;424122;22;92951;-90
2021/10/14 00:51:53;;;;;;;;;;;9.10;94.40;9.50;100446.00;;;;425237;22;82260;-90
2021/10/14 00:52:05;;;;;;;;;;;9.10;94.40;9.50;100451.00;;;;426449;22;91405;-90
2021/10/14 00:52:17;;;;;;;;;;;9.10;94.40;9.50;100449.00;;;;427272;22;83430;-90
2021/10/14 00:52:28;;;;;;;;;;;9.10;94.40;9.60;100443.00;;;;424630;22;91155;-90
2021/10/14 00:52:41;;;;;;;;;;;9.10;94.30;9.60;100443.00;;;;427243;22;83388;-90
2021/10/14 00:52:54;;;;;;;;;;;9.20;94.40;9.60;100446.00;;;;422323;23;91657;-90
2021/10/14 00:53:06;;;;;;;;;;;9.20;94.40;9.50;100448.00;;;;426886;22;83444;-91
2021/10/14 00:53:18;;;;;;;;;;;9.20;94.40;9.60;100434.00;;;;422619;23;91167;-91
2021/10/14 00:53:29;;;;;;;;;;;9.20;94.40;9.50;100453.00;;;;420783;23;82500;-90
2021/10/14 00:53:41;;;;;;;;;;;9.20;94.40;9.50;100449.00;;;;426663;22;91350;-91
2021/10/14 00:53:53;;;;;;;;;;;9.10;94.40;9.50;100447.00;;;;427220;22;83397;-91
2021/10/14 00:54:05;;;;;;;;;;;9.20;94.40;9.60;100448.00;;;;426444;22;91797;-91
2021/10/14 00:54:18;;;;;;;;;;;9.20;94.40;9.60;100442.00;;;;427054;22;82422;-91
2021/10/14 00:54:30;;;;;;;;;;;9.20;94.40;9.60;100448.00;;;;420531;23;90306;-90
2021/10/14 00:54:42;;;;;;;;;;;9.20;94.40;9.70;100437.00;;;;424977;22;83446;-91
2021/10/14 00:54:55;;;;;;;;;;;9.20;94.40;9.70;100443.00;;;;424728;22;90666;-90
2021/10/14 00:55:08;;;;;;;;;;;9.20;94.40;9.70;100444.00;;;;422896;23;82510;-90
2021/10/14 00:55:20;;;;;;;;;;;9.20;94.40;9.60;100446.00;;;;424411;22;91642;-91
2021/10/14 00:55:32;;;;;;;;;;;9.20;94.30;9.50;100444.00;;;;427028;22;83256;-90
2021/10/14 00:55:44;;;;;;;;;;;9.20;94.30;9.50;100444.00;;;;422584;23;92509;-90
2021/10/14 00:55:55;;;;;;;;;;;9.20;94.30;9.50;100443.00;;;;425303;22;82469;-90
2021/10/14 00:56:07;;;;;;;;;;;9.20;94.30;9.50;100440.00;;;;420712;23;90508;-90
2021/10/14 00:56:19;;;;;;;;;;;9.20;94.40;9.50;100441.00;;;;422880;23;83277;-91
2021/10/14 00:56:31;;;;;;;;;;;9.20;94.40;9.50;100438.00;;;;426459;22;91638;-90
2021/10/14 00:56:43;;;;;;;;;;;9.20;94.40;9.60;100442.00;;;;423111;23;83434;-90
2021/10/14 00:56:54;;;;;;;;;;;9.10;94.30;9.50;100441.00;;;;424693;22;90390;-90
2021/10/14 00:57:06;;;;;;;;;;;9.10;94.30;9.60;100432.00;;;;427415;22;82419;-90
2021/10/14 00:57:18;;;;;;;;;;;9.10;94.40;9.50;100436.00;;;;422670;23;90673;-91
2021/10/14 00:57:30;;;;;;;;;;;9.20;94.70;9.60;100434.00;;;;423251;23;82467;-92
2021/10/14 00:57:42;;;;;;;;;;;9.20;94.50;9.50;100442.00;;;;424577;22;91452;-91
2021/10/14 00:57:53;;;;;;;;;;;9.20;94.40;9.60;100435.00;;;;427073;22;84008;-90
2021/10/14 00:58:05;;;;;;;;;;;9.10;94.40;9.60;100434.00;;;;424355;22;91502;-91
2021/10/14 00:58:17;;;;;;;;;;;9.10;94.40;9.50;100431.00;;;;421157;23;82496;-90
2021/10/14 00:58:29;;;;;;;;;;;9.10;94.40;9.50;100438.00;;;;422372;23;91361;-91
2021/10/14 00:58:40;;;;;;;;;;;9.10;94.40;9.50;100440.00;;;;420741;23;83322;-91
2021/10/14 00:58:52;;;;;;;;;;;9.20;94.40;9.50;100445.00;;;;424399;22;91373;-91
2021/10/14 00:59:04;;;;;;;;;;;9.10;94.40;9.40;100440.00;;;;425294;22;83885;-90
2021/10/14 00:59:16;;;;;;;;;;;9.10;94.40;9.40;100442.00;;;;426357;22;90579;-90
2021/10/14 00:59:29;;;;;;;;;;;9.10;94.40;9.50;100437.00;;;;422763;23;82529;-90
2021/10/14 00:59:41;;;;;;;;;;;9.10;94.40;9.50;100440.00;;;;426731;22;92248;-91
2021/10/14 00:59:52;;;;;;;;;;;9.10;94.40;9.50;100437.00;;;;425199;22;83351;-91
2021/10/14 01:00:05;;;;;;;;;;;9.10;94.40;9.40;100448.00;;;;423960;22;89787;-91